ウラジオストク空港 の過去48時間の天気

ウラジオストク空港 (Vladivostok)

現在時刻: 7/5 14:05 +10 (7/5 04:05 UTC) 以下の時間は現地時間です。

過去48時間のMETAR気象情報
時間 風向 風速(m/s) 視程 気温(℃) 湿度(%) 気圧(hPa) 天気現象
5 13:30 西南西 4 10km以上 23 78 1008
5 13:00 南西 4 10km以上 22 83 1008
5 12:30 西南西 5 10km以上 22 78 1008
5 12:00 西南西 5 10km以上 21 83 1008
5 11:30 西南西 4 10km以上 21 83 1008
5 11:00 西南西 4 10km以上 21 83 1008
5 10:30 西南西 4 10km以上 21 83 1008
5 10:00 西 5 10km以上 20 88 1008
5 09:30 西 5 10km以上 20 88 1008
5 09:00 西南西 4 10km以上 20 88 1008
5 08:30 西南西 4 10km以上 20 88 1008
5 08:00 西 5 9000m 19 94 1008
5 07:30 西南西 5 9000m 19 94 1008
5 07:00 西南西 5 9000m 19 94 1008
5 06:30 西南西 3 7000m 19 94 1008 もや
5 06:00 西北西 1 1200m 18 100 1007
5 05:30 不定 1 6000m 19 94 1007 部分霧
5 05:00 静穏 0 5000m 18 100 1007 もや
5 04:30 静穏 0 6000m 19 94 1006
5 04:00 東北東 2 5000m 19 100 1006 もや
5 03:30 不定 1 5000m 19 100 1006 もや
5 03:00 不定 1 8000m 20 94 1006
5 02:30 北北東 1 9000m 20 94 1006
5 02:00 北北東 1 10km以上 20 94 1006
5 01:30 2 9000m 20 94 1006
5 01:00 東南東 3 10km以上 20 94 1006
5 00:30 2 9000m 21 94 1006
5 00:00 東北東 2 9000m 21 94 1006
4 23:30 東南東 3 9000m 22 88 1006
4 23:00 東北東 2 9000m 21 94 1006
4 22:30 東北東 3 10km以上 22 88 1005
4 22:00 東北東 2 10km以上 22 94 1005
4 21:30 3 10km以上 23 89 1005
4 21:00 不定 1 10km以上 24 83 1004
4 20:30 西北西 3 10km以上 25 78 1004
4 20:00 3 10km以上 27 70 1004
4 19:30 南南西 3 10km以上 28 62 1004
4 19:00 西南西 6 10km以上 28 62 1003
4 18:30 南西 6 10km以上 28 62 1003
4 18:00 南西 8 10km以上 29 58 1003
4 17:30 南西 7 10km以上 29 62 1004
4 17:00 西南西 7 10km以上 29 62 1004
4 16:30 西南西 6 10km以上 30 62 1003
4 16:00 西南西 6 10km以上 30 59 1004
4 15:30 西南西 5 10km以上 31 62 1004
4 15:00 南西 4 10km以上 31 59 1004
4 14:30 南西 4 10km以上 31 59 1004
4 14:00 西南西 4 10km以上 31 62 1004
4 13:30 南西 3 10km以上 31 59 1004
4 13:00 不定 1 10km以上 31 55 1004
4 12:30 南東 2 10km以上 30 62 1004
4 12:00 不定 1 10km以上 30 66 1004
4 11:30 不定 1 10km以上 29 66 1005
4 11:00 不定 1 10km以上 28 66 1005
4 10:30 不定 1 10km以上 27 70 1005
4 10:00 不定 1 10km以上 26 70 1005
4 09:30 静穏 0 10km以上 25 74 1005
4 09:00 不定 1 10km以上 24 78 1005
4 08:30 北東 2 10km以上 22 83 1005
4 08:00 不定 1 10km以上 21 88 1005
4 07:30 不定 1 10km以上 20 88 1005
4 07:00 1 8000m 18 100 1005 散在した霧
4 06:30 北北東 1 5000m 18 94 1005 散在した霧
4 06:00 1 8000m 17 100 1005 散在した霧
4 05:30 北東 1 6000m 17 100 1005 散在した霧
4 05:00 北北東 1 7000m 17 100 1005
4 04:30 北北東 1 6000m 18 94 1005
4 04:00 1 6000m 18 100 1005
4 03:30 1 6000m 18 100 1005
4 03:00 不定 1 5000m 18 100 1005 もや
4 02:30 北北東 2 7000m 19 100 1005
4 02:00 東北東 2 8000m 19 94 1005
4 01:30 東北東 3 10km以上 19 94 1005
4 01:00 2 10km以上 20 94 1005
4 00:30 2 10km以上 19 100 1006
4 00:00 東北東 2 10km以上 19 94 1006
3 23:30 北東 2 10km以上 19 100 1005
3 23:00 2 10km以上 20 94 1005
3 22:30 東北東 3 10km以上 20 88 1005
3 22:00 2 10km以上 21 88 1005
3 21:30 東南東 3 10km以上 22 83 1005
3 21:00 3 10km以上 22 83 1005
3 20:30 3 10km以上 23 83 1005
3 20:00 3 10km以上 24 83 1004
3 19:30 西南西 1 10km以上 26 70 1004
3 19:00 西南西 2 10km以上 25 78 1004 弱いしゅう雨
3 18:30 西南西 4 10km以上 24 83 1004
3 18:00 南西 4 10km以上 24 83 1004
3 17:30 南南西 4 10km以上 26 74 1004
3 17:00 西 4 10km以上 26 79 1005 弱いしゅう雨
3 16:30 西南西 4 10km以上 26 79 1005 弱いしゅう雨
3 16:00 西 4 10km以上 27 74 1005
3 15:30 西南西 4 10km以上 28 70 1005
3 15:00 西南西 3 10km以上 29 58 1005
3 14:30 南南西 3 10km以上 29 55 1005
UHWW 050330Z 25004MPS 9999 SCT015 23/19 Q1008 R25L/0///70 NOSIG RMK QFE755
UHWW 050300Z 23004MPS 9999 SCT015 22/19 Q1008 R25L/0///70 NOSIG RMK QFE755
UHWW 050230Z 25005MPS 9999 BKN011 22/18 Q1008 R25L/0///70 NOSIG RMK QFE755
UHWW 050200Z 25005MPS 9999 OVC010 21/18 Q1008 R25L/0///70 NOSIG RMK QFE755
UHWW 050130Z 24004MPS 9999 OVC010 21/18 Q1008 R25L/0///70 NOSIG RMK QFE755
UHWW 050100Z 25004MPS 9999 BKN009 21/18 Q1008 R25L/0///70 NOSIG RMK MT OBSC QFE755
UHWW 050030Z 25004MPS 9999 BKN006 21/18 Q1008 R25L/0///70 NOSIG RMK MT OBSC QFE755
UHWW 050000Z 26005MPS 9999 BKN006 20/18 Q1008 R25L/0///70 NOSIG RMK MT OBSC QFE755
UHWW 042330Z 26005MPS 9999 BKN006 20/18 Q1008 R25L/0///70 NOSIG RMK MT OBSC QFE755
UHWW 042300Z 25004MPS 9999 BKN006 20/18 Q1008 R25L/0///70 NOSIG RMK MT OBSC QFE755
UHWW 042230Z 24004MPS 9999 BKN006 20/18 Q1008 R25L/0///70 NOSIG RMK MT OBSC QFE755
UHWW 042200Z 26005MPS 9000 BKN006 19/18 Q1008 R25L/0///70 NOSIG RMK MT OBSC QFE755
UHWW 042130Z 25005MPS 9000 BKN006 19/18 Q1008 R25L/0///70 NOSIG RMK MT OBSC QFE755
UHWW 042100Z 24005MPS 9000 SCT006 19/18 Q1008 R25L/0///70 NOSIG RMK MT OBSC QFE755
UHWW 042030Z 25003MPS 7000 2000E R25L/2000D BR SCT006 19/18 Q1008 R25L/0///70 NOSIG RMK MT OBSC QFE755
UHWW 042000Z 29001MPS 1200 0100N FG VV003 18/18 Q1007 R25L/0///70 NOSIG RMK QBB090 MT OBSC QFE754
UHWW 041930Z VRB01MPS 6000 0700E R25L/0900D PRFG SCT003 19/18 Q1007 R25L/0///70 NOSIG RMK QFE754
UHWW 041900Z 00000MPS 5000 BR NSC 18/18 Q1007 R25L/0///70 NOSIG RMK QFE754
UHWW 041830Z 00000MPS 6000 NSC 19/18 Q1006 R25L/0///70 NOSIG RMK QFE754
UHWW 041800Z 07002MPS 5000 BR NSC 19/19 Q1006 R25L/0///70 NOSIG RMK QFE754
UHWW 041730Z VRB01MPS 5000 BR NSC 19/19 Q1006 R25L/0///70 NOSIG RMK QFE754
UHWW 041700Z VRB01MPS 8000 NSC 20/19 Q1006 R25L/0///70 NOSIG RMK QFE753
UHWW 041630Z 03001MPS 9000 NSC 20/19 Q1006 R25L/0///70 NOSIG RMK QFE753
UHWW 041600Z 03001MPS 9999 NSC 20/19 Q1006 R25L/0///70 NOSIG RMK QFE753
UHWW 041530Z 09002MPS 9000 NSC 20/19 Q1006 R25L/0///70 NOSIG RMK QFE753
UHWW 041500Z 12003MPS 9999 NSC 20/19 Q1006 R25L/0///70 NOSIG RMK QFE753
UHWW 041430Z 08002MPS 9000 NSC 21/20 Q1006 R25L/0///70 NOSIG RMK QFE753
UHWW 041400Z 06002MPS 9000 NSC 21/20 Q1006 R25L/0///70 NOSIG RMK QFE753
UHWW 041330Z 11003MPS 9000 NSC 22/20 Q1006 R25L/0///70 NOSIG RMK QFE753
UHWW 041300Z 06002MPS 9000 NSC 21/20 Q1006 R25L/0///70 NOSIG RMK QFE753
UHWW 041230Z 07003MPS 9999 NSC 22/20 Q1005 R25L/0///70 NOSIG RMK QFE753
UHWW 041200Z 07002MPS 9999 NSC 22/21 Q1005 R25L/0///70 NOSIG RMK QFE753
UHWW 041130Z 08003MPS 9999 NSC 23/21 Q1005 R25L/0///70 NOSIG RMK QFE752
UHWW 041100Z VRB01MPS 9999 NSC 24/21 Q1004 R25L/0///70 NOSIG RMK QFE752
UHWW 041030Z 29003MPS 250V360 9999 NSC 25/21 Q1004 R25L/0///70 NOSIG RMK QFE752
UHWW 041000Z 10003MPS 9999 NSC 27/21 Q1004 R25L/0///70 NOSIG RMK QFE752
UHWW 040930Z 21003MPS 9999 NSC 28/20 Q1004 R25L/0///70 NOSIG RMK QFE751
UHWW 040900Z 24006MPS 9999 NSC 28/20 Q1003 R25L/0///70 NOSIG RMK QFE751
UHWW 040830Z 23006MPS 9999 NSC 28/20 Q1003 R25L/0///70 NOSIG RMK QFE751
UHWW 040800Z 23008MPS 9999 NSC 29/20 Q1003 R25L/0///70 NOSIG RMK QFE751
UHWW 040730Z 23007MPS 9999 NSC 29/21 Q1004 R25L/0///70 NOSIG RMK QFE751
UHWW 040700Z 25007MPS 9999 NSC 29/21 Q1004 R25L/0///70 NOSIG RMK QFE751
UHWW 040630Z 24006MPS 9999 NSC 30/22 Q1003 R25L/0///70 NOSIG RMK QFE751
UHWW 040600Z 24006MPS 9999 NSC 30/21 Q1004 R25L/0///70 NOSIG RMK QFE751
UHWW 040530Z 24005MPS 9999 NSC 31/23 Q1004 R25L/0///70 NOSIG RMK QFE752
UHWW 040500Z 23004MPS 9999 NSC 31/22 Q1004 R25L/0///70 NOSIG RMK QFE751
UHWW 040430Z 23004MPS 9999 SCT040 31/22 Q1004 R25L/0///70 NOSIG RMK QFE752
UHWW 040400Z 25004MPS 200V270 9999 SCT040 31/23 Q1004 R25L/0///70 NOSIG RMK QFE752
UHWW 040330Z 22003MPS 170V290 9999 SCT040 31/22 Q1004 R25L/0///70 NOSIG RMK QFE752
UHWW 040300Z VRB01MPS 9999 NSC 31/21 Q1004 R25L/0///70 NOSIG RMK QFE752
UHWW 040230Z 14002MPS 110V180 9999 NSC 30/22 Q1004 R25L/0///70 NOSIG RMK QFE752
UHWW 040200Z VRB01MPS 9999 NSC 30/23 Q1004 R25L/0///70 NOSIG RMK QFE752
UHWW 040130Z VRB01MPS 9999 NSC 29/22 Q1005 R25L/0///70 NOSIG RMK QFE752
UHWW 040100Z VRB01MPS 9999 NSC 28/21 Q1005 R25L/0///70 NOSIG RMK QFE752
UHWW 040030Z VRB01MPS 9999 NSC 27/21 Q1005 R25L/0///70 NOSIG RMK QFE752
UHWW 040000Z VRB01MPS 9999 NSC 26/20 Q1005 R25L/0///70 NOSIG RMK QFE752
UHWW 032330Z 00000MPS 9999 NSC 25/20 Q1005 R25L/0///70 NOSIG RMK QFE753
UHWW 032300Z VRB01MPS 9999 NSC 24/20 Q1005 R25L/0///70 NOSIG RMK QFE753
UHWW 032230Z 05002MPS 9999 NSC 22/19 Q1005 R25L/0///70 NOSIG RMK QFE753
UHWW 032200Z VRB01MPS 9999 NSC 21/19 Q1005 R25L/0///70 NOSIG RMK QFE753
UHWW 032130Z VRB01MPS 9999 NSC 20/18 Q1005 R25L/0///70 NOSIG RMK QFE753
UHWW 032100Z 36001MPS 8000 BCFG FEW001 18/18 Q1005 R25L/0///70 NOSIG RMK QFE753
UHWW 032030Z 03001MPS 5000 1500E R25L/1500U BCFG SCT001 18/17 Q1005 R25L/0///70 TEMPO 0300 FG BKN002 RMK QFE753
UHWW 032000Z 01001MPS 8000 BCFG SCT001 17/17 Q1005 R25L/0///70 NOSIG RMK QFE753
UHWW 031930Z 05001MPS 6000 BCFG SCT001 17/17 Q1005 R25L/0///70 NOSIG RMK QFE753
UHWW 031900Z 02001MPS 7000 SCT001 17/17 Q1005 R25L/0///70 NOSIG RMK QFE752
UHWW 031830Z 03001MPS 6000 SCT001 18/17 Q1005 R25L/0///70 NOSIG RMK QFE753
UHWW 031800Z 36001MPS 6000 SCT001 18/18 Q1005 R25L/0///70 NOSIG RMK QFE753
UHWW 031730Z 35001MPS 6000 SCT001 18/18 Q1005 R25L/0///70 NOSIG RMK QFE753
UHWW 031700Z VRB01MPS 5000 BR NSC 18/18 Q1005 R25L/0///70 NOSIG RMK QFE753
UHWW 031630Z 03002MPS 350V080 7000 NSC 19/19 Q1005 R25L/0///70 NOSIG RMK QFE753
UHWW 031600Z 06002MPS 8000 NSC 19/18 Q1005 R25L/0///70 NOSIG RMK QFE753
UHWW 031530Z 07003MPS 9999 NSC 19/18 Q1005 R25L/0///70 NOSIG RMK QFE753
UHWW 031500Z 10002MPS 9999 NSC 20/19 Q1005 R25L/0///70 NOSIG RMK QFE753
UHWW 031430Z 09002MPS 9999 NSC 19/19 Q1006 R25L/0///70 NOSIG RMK QFE753
UHWW 031400Z 07002MPS 9999 NSC 19/18 Q1006 R25L/0///70 NOSIG RMK QFE753
UHWW 031330Z 05002MPS 9999 NSC 19/19 Q1005 R25L/0///70 NOSIG RMK QFE753
UHWW 031300Z 08002MPS 9999 NSC 20/19 Q1005 R25L/0///70 NOSIG RMK QFE753
UHWW 031230Z 07003MPS 9999 NSC 20/18 Q1005 R25L/0///70 NOSIG RMK QFE753
UHWW 031200Z 09002MPS 9999 NSC 21/19 Q1005 R25L/0///70 NOSIG RMK QFE753
UHWW 031130Z 11003MPS 9999 NSC 22/19 Q1005 R25L/0///70 NOSIG RMK QFE752
UHWW 031100Z 10003MPS 9999 NSC 22/19 Q1005 R25L/0///70 NOSIG RMK QFE752
UHWW 031030Z 10003MPS 9999 FEW040CB 23/20 Q1005 R25L/0///70 NOSIG RMK QFE752
UHWW 031000Z 08003MPS 9999 FEW040CB 24/21 Q1004 R25L/0///70 NOSIG RMK QFE752
UHWW 030930Z 25001MPS 9999 FEW027CB 26/20 Q1004 R25L/0///70 NOSIG RMK QFE752
UHWW 030900Z 25002MPS 9999 -SHRA SCT036CB 25/21 Q1004 R25L/0///70 NOSIG RMK QFE752
UHWW 030830Z 25004MPS 9999 FEW030CB 24/21 Q1004 R25L/0///70 NOSIG RMK QFE752
UHWW 030800Z 23004MPS 9999 FEW030CB 24/21 Q1004 R25L/0///70 NOSIG RMK QFE752
UHWW 030730Z 21004MPS 9999 FEW030CB 26/21 Q1004 R25L/0///70 NOSIG RMK QFE752
UHWW 030700Z 27004MPS 9999 -SHRA SCT036CB 26/22 Q1005 R25L/0///70 NOSIG RMK QFE752
UHWW 030630Z 25004MPS 9999 -SHRA SCT036CB 26/22 Q1005 R25L/0///70 NOSIG RMK QFE752
UHWW 030600Z 26004MPS 9999 FEW033CB 27/22 Q1005 R25L/0///70 NOSIG RMK QFE752
UHWW 030530Z 24004MPS 9999 FEW033CB 28/22 Q1005 R25L/0///70 NOSIG RMK QFE752
UHWW 030500Z 25003MPS 9999 FEW033CB 29/20 Q1005 R25L/0///70 NOSIG RMK QFE753
UHWW 030430Z 21003MPS 9999 FEW033CB 29/19 Q1005 R25L/0///70 NOSIG RMK QFE753